sensor_id;sensor_type;location;lat;lon;timestamp;P1;durP1;ratioP1;P2;durP2;ratioP2
24421;SDS011;12600;53.326;-6.298;2022-12-07T00:02:47;42.42;;;28.77;;
24421;SDS011;12600;53.326;-6.298;2022-12-07T00:05:36;52.08;;;37.00;;
24421;SDS011;12600;53.326;-6.298;2022-12-07T00:08:27;65.70;;;39.30;;
24421;SDS011;12600;53.326;-6.298;2022-12-07T00:11:17;54.42;;;36.83;;
24421;SDS011;12600;53.326;-6.298;2022-12-07T00:14:10;62.33;;;44.33;;
24421;SDS011;12600;53.326;-6.298;2022-12-07T00:17:02;54.88;;;42.47;;
24421;SDS011;12600;53.326;-6.298;2022-12-07T00:19:51;64.03;;;48.80;;
24421;SDS011;12600;53.326;-6.298;2022-12-07T00:22:41;49.33;;;42.67;;
24421;SDS011;12600;53.326;-6.298;2022-12-07T00:25:31;52.05;;;46.70;;
24421;SDS011;12600;53.326;-6.298;2022-12-07T00:28:21;55.17;;;47.53;;
24421;SDS011;12600;53.326;-6.298;2022-12-07T00:31:11;62.35;;;56.17;;
24421;SDS011;12600;53.326;-6.298;2022-12-07T00:34:01;59.90;;;53.63;;
24421;SDS011;12600;53.326;-6.298;2022-12-07T00:36:51;62.83;;;56.03;;
24421;SDS011;12600;53.326;-6.298;2022-12-07T00:39:40;63.83;;;57.65;;
24421;SDS011;12600;53.326;-6.298;2022-12-07T00:42:31;63.63;;;57.13;;
24421;SDS011;12600;53.326;-6.298;2022-12-07T00:45:20;64.15;;;57.47;;
24421;SDS011;12600;53.326;-6.298;2022-12-07T00:48:10;64.20;;;57.83;;
24421;SDS011;12600;53.326;-6.298;2022-12-07T00:50:59;67.43;;;61.63;;
24421;SDS011;12600;53.326;-6.298;2022-12-07T00:53:49;65.68;;;58.95;;
24421;SDS011;12600;53.326;-6.298;2022-12-07T00:56:39;64.55;;;58.80;;
24421;SDS011;12600;53.326;-6.298;2022-12-07T00:59:29;61.70;;;55.80;;
24421;SDS011;12600;53.326;-6.298;2022-12-07T01:02:19;68.78;;;62.25;;
24421;SDS011;12600;53.326;-6.298;2022-12-07T01:05:08;64.95;;;59.15;;
24421;SDS011;12600;53.326;-6.298;2022-12-07T01:07:58;69.43;;;63.20;;
24421;SDS011;12600;53.326;-6.298;2022-12-07T01:10:47;71.35;;;64.60;;
24421;SDS011;12600;53.326;-6.298;2022-12-07T01:13:37;73.47;;;66.55;;
24421;SDS011;12600;53.326;-6.298;2022-12-07T01:16:29;73.45;;;66.82;;
24421;SDS011;12600;53.326;-6.298;2022-12-07T01:19:20;71.57;;;65.40;;
24421;SDS011;12600;53.326;-6.298;2022-12-07T01:22:09;64.15;;;58.28;;
24421;SDS011;12600;53.326;-6.298;2022-12-07T01:24:59;62.42;;;56.97;;
24421;SDS011;12600;53.326;-6.298;2022-12-07T01:27:48;65.53;;;59.83;;
24421;SDS011;12600;53.326;-6.298;2022-12-07T01:30:37;59.15;;;53.95;;
24421;SDS011;12600;53.326;-6.298;2022-12-07T01:33:28;56.97;;;51.70;;
24421;SDS011;12600;53.326;-6.298;2022-12-07T01:36:22;59.85;;;54.30;;
24421;SDS011;12600;53.326;-6.298;2022-12-07T01:39:13;60.35;;;54.70;;
24421;SDS011;12600;53.326;-6.298;2022-12-07T01:42:02;56.42;;;51.15;;
24421;SDS011;12600;53.326;-6.298;2022-12-07T01:48:34;52.20;;;47.63;;
24421;SDS011;12600;53.326;-6.298;2022-12-07T01:51:29;47.20;;;42.92;;
24421;SDS011;12600;53.326;-6.298;2022-12-07T01:54:19;46.58;;;42.65;;
24421;SDS011;12600;53.326;-6.298;2022-12-07T01:57:10;46.65;;;41.90;;
24421;SDS011;12600;53.326;-6.298;2022-12-07T02:00:00;41.35;;;37.92;;
24421;SDS011;12600;53.326;-6.298;2022-12-07T02:03:00;39.38;;;35.60;;
24421;SDS011;12600;53.326;-6.298;2022-12-07T02:05:57;35.90;;;32.67;;
24421;SDS011;12600;53.326;-6.298;2022-12-07T02:08:47;38.45;;;34.95;;
24421;SDS011;12600;53.326;-6.298;2022-12-07T02:11:38;35.95;;;32.45;;
24421;SDS011;12600;53.326;-6.298;2022-12-07T02:14:28;40.75;;;37.25;;
24421;SDS011;12600;53.326;-6.298;2022-12-07T02:17:18;37.10;;;33.90;;
24421;SDS011;12600;53.326;-6.298;2022-12-07T02:20:24;39.88;;;36.33;;
24421;SDS011;12600;53.326;-6.298;2022-12-07T02:26:45;42.20;;;38.55;;
24421;SDS011;12600;53.326;-6.298;2022-12-07T02:30:01;43.10;;;39.22;;
24421;SDS011;12600;53.326;-6.298;2022-12-07T02:32:55;42.72;;;39.03;;
24421;SDS011;12600;53.326;-6.298;2022-12-07T02:35:51;43.53;;;39.78;;
24421;SDS011;12600;53.326;-6.298;2022-12-07T02:38:47;40.00;;;36.00;;
24421;SDS011;12600;53.326;-6.298;2022-12-07T02:41:44;40.35;;;36.70;;
24421;SDS011;12600;53.326;-6.298;2022-12-07T02:44:38;33.80;;;30.90;;
24421;SDS011;12600;53.326;-6.298;2022-12-07T02:47:29;29.42;;;26.30;;
24421;SDS011;12600;53.326;-6.298;2022-12-07T02:50:21;31.65;;;28.67;;
24421;SDS011;12600;53.326;-6.298;2022-12-07T02:56:25;31.77;;;28.85;;
24421;SDS011;12600;53.326;-6.298;2022-12-07T02:59:25;33.33;;;29.83;;
24421;SDS011;12600;53.326;-6.298;2022-12-07T03:02:26;34.17;;;30.67;;
24421;SDS011;12600;53.326;-6.298;2022-12-07T03:05:33;32.38;;;29.15;;
24421;SDS011;12600;53.326;-6.298;2022-12-07T03:08:44;30.88;;;27.58;;
24421;SDS011;12600;53.326;-6.298;2022-12-07T03:11:46;32.17;;;28.65;;
24421;SDS011;12600;53.326;-6.298;2022-12-07T03:14:39;37.95;;;34.22;;
24421;SDS011;12600;53.326;-6.298;2022-12-07T03:17:37;39.13;;;35.15;;
24421;SDS011;12600;53.326;-6.298;2022-12-07T03:20:31;38.78;;;35.10;;
24421;SDS011;12600;53.326;-6.298;2022-12-07T03:23:24;42.10;;;37.88;;
24421;SDS011;12600;53.326;-6.298;2022-12-07T03:26:15;41.72;;;37.72;;
24421;SDS011;12600;53.326;-6.298;2022-12-07T03:29:09;44.17;;;40.10;;
24421;SDS011;12600;53.326;-6.298;2022-12-07T03:32:10;38.60;;;34.70;;
24421;SDS011;12600;53.326;-6.298;2022-12-07T03:35:11;43.35;;;39.70;;
24421;SDS011;12600;53.326;-6.298;2022-12-07T03:38:12;39.83;;;36.05;;
24421;SDS011;12600;53.326;-6.298;2022-12-07T03:41:06;38.60;;;34.92;;
24421;SDS011;12600;53.326;-6.298;2022-12-07T03:44:02;38.38;;;34.22;;
24421;SDS011;12600;53.326;-6.298;2022-12-07T03:49:50;42.78;;;38.75;;
24421;SDS011;12600;53.326;-6.298;2022-12-07T03:52:45;43.85;;;39.58;;
24421;SDS011;12600;53.326;-6.298;2022-12-07T03:55:40;61.35;;;56.28;;
24421;SDS011;12600;53.326;-6.298;2022-12-07T03:58:34;40.55;;;36.47;;
24421;SDS011;12600;53.326;-6.298;2022-12-07T04:01:24;45.85;;;41.58;;
24421;SDS011;12600;53.326;-6.298;2022-12-07T04:04:14;46.13;;;41.35;;
24421;SDS011;12600;53.326;-6.298;2022-12-07T04:07:03;44.50;;;40.30;;
24421;SDS011;12600;53.326;-6.298;2022-12-07T04:09:54;40.30;;;36.30;;
24421;SDS011;12600;53.326;-6.298;2022-12-07T04:12:43;48.25;;;43.65;;
24421;SDS011;12600;53.326;-6.298;2022-12-07T04:15:33;46.55;;;41.55;;
24421;SDS011;12600;53.326;-6.298;2022-12-07T04:18:22;41.60;;;37.58;;
24421;SDS011;12600;53.326;-6.298;2022-12-07T04:21:12;77.28;;;72.22;;
24421;SDS011;12600;53.326;-6.298;2022-12-07T04:24:01;43.70;;;39.53;;
24421;SDS011;12600;53.326;-6.298;2022-12-07T04:26:52;41.42;;;37.33;;
24421;SDS011;12600;53.326;-6.298;2022-12-07T04:29:42;44.50;;;40.45;;
24421;SDS011;12600;53.326;-6.298;2022-12-07T04:32:31;46.15;;;41.95;;
24421;SDS011;12600;53.326;-6.298;2022-12-07T04:35:21;44.55;;;40.65;;
24421;SDS011;12600;53.326;-6.298;2022-12-07T04:38:10;37.90;;;34.45;;
24421;SDS011;12600;53.326;-6.298;2022-12-07T04:41:03;40.80;;;36.78;;
24421;SDS011;12600;53.326;-6.298;2022-12-07T04:43:56;37.20;;;34.00;;
24421;SDS011;12600;53.326;-6.298;2022-12-07T04:46:47;53.03;;;49.00;;
24421;SDS011;12600;53.326;-6.298;2022-12-07T04:49:37;34.55;;;31.10;;
24421;SDS011;12600;53.326;-6.298;2022-12-07T04:52:27;51.28;;;46.45;;
24421;SDS011;12600;53.326;-6.298;2022-12-07T04:55:16;35.17;;;31.63;;
24421;SDS011;12600;53.326;-6.298;2022-12-07T04:58:06;31.70;;;28.42;;
24421;SDS011;12600;53.326;-6.298;2022-12-07T05:00:57;34.67;;;31.33;;
24421;SDS011;12600;53.326;-6.298;2022-12-07T05:03:46;34.20;;;31.23;;
24421;SDS011;12600;53.326;-6.298;2022-12-07T05:06:36;31.30;;;27.98;;
24421;SDS011;12600;53.326;-6.298;2022-12-07T05:09:25;30.92;;;27.55;;
24421;SDS011;12600;53.326;-6.298;2022-12-07T05:12:14;28.95;;;22.80;;
24421;SDS011;12600;53.326;-6.298;2022-12-07T05:15:04;28.02;;;24.58;;
24421;SDS011;12600;53.326;-6.298;2022-12-07T05:17:55;30.38;;;25.40;;
24421;SDS011;12600;53.326;-6.298;2022-12-07T05:20:45;28.40;;;25.65;;
24421;SDS011;12600;53.326;-6.298;2022-12-07T05:23:34;32.75;;;29.70;;
24421;SDS011;12600;53.326;-6.298;2022-12-07T05:26:23;26.98;;;24.02;;
24421;SDS011;12600;53.326;-6.298;2022-12-07T05:29:13;26.52;;;24.05;;
24421;SDS011;12600;53.326;-6.298;2022-12-07T05:32:05;27.73;;;24.92;;
24421;SDS011;12600;53.326;-6.298;2022-12-07T05:34:55;28.27;;;25.48;;
24421;SDS011;12600;53.326;-6.298;2022-12-07T05:37:45;29.95;;;26.00;;
24421;SDS011;12600;53.326;-6.298;2022-12-07T05:40:34;27.85;;;25.15;;
24421;SDS011;12600;53.326;-6.298;2022-12-07T05:43:25;25.67;;;22.75;;
24421;SDS011;12600;53.326;-6.298;2022-12-07T05:46:14;27.80;;;24.95;;
24421;SDS011;12600;53.326;-6.298;2022-12-07T05:49:04;27.25;;;23.80;;
24421;SDS011;12600;53.326;-6.298;2022-12-07T05:51:54;25.40;;;22.50;;
24421;SDS011;12600;53.326;-6.298;2022-12-07T05:54:44;28.33;;;25.85;;
24421;SDS011;12600;53.326;-6.298;2022-12-07T05:57:33;30.92;;;24.50;;
24421;SDS011;12600;53.326;-6.298;2022-12-07T06:00:23;27.52;;;23.73;;
24421;SDS011;12600;53.326;-6.298;2022-12-07T06:03:11;25.65;;;22.95;;
24421;SDS011;12600;53.326;-6.298;2022-12-07T06:06:01;27.52;;;24.65;;
24421;SDS011;12600;53.326;-6.298;2022-12-07T06:08:52;28.65;;;24.58;;
24421;SDS011;12600;53.326;-6.298;2022-12-07T06:11:41;32.22;;;24.33;;
24421;SDS011;12600;53.326;-6.298;2022-12-07T06:14:48;29.85;;;26.08;;
24421;SDS011;12600;53.326;-6.298;2022-12-07T06:17:38;36.20;;;27.67;;
24421;SDS011;12600;53.326;-6.298;2022-12-07T06:20:27;35.83;;;24.50;;
24421;SDS011;12600;53.326;-6.298;2022-12-07T06:23:16;40.08;;;24.48;;
24421;SDS011;12600;53.326;-6.298;2022-12-07T06:26:07;40.60;;;25.30;;
24421;SDS011;12600;53.326;-6.298;2022-12-07T06:28:56;41.63;;;23.95;;
24421;SDS011;12600;53.326;-6.298;2022-12-07T06:31:46;33.15;;;26.75;;
24421;SDS011;12600;53.326;-6.298;2022-12-07T06:34:35;31.70;;;24.65;;
24421;SDS011;12600;53.326;-6.298;2022-12-07T06:37:25;30.35;;;23.05;;
24421;SDS011;12600;53.326;-6.298;2022-12-07T06:40:14;30.63;;;26.73;;
24421;SDS011;12600;53.326;-6.298;2022-12-07T06:43:05;28.67;;;25.63;;
24421;SDS011;12600;53.326;-6.298;2022-12-07T06:45:55;28.73;;;24.60;;
24421;SDS011;12600;53.326;-6.298;2022-12-07T06:48:44;32.00;;;29.08;;
24421;SDS011;12600;53.326;-6.298;2022-12-07T06:51:33;31.40;;;28.05;;
24421;SDS011;12600;53.326;-6.298;2022-12-07T06:54:27;31.85;;;28.15;;
24421;SDS011;12600;53.326;-6.298;2022-12-07T06:57:17;27.63;;;24.48;;
24421;SDS011;12600;53.326;-6.298;2022-12-07T07:00:09;32.40;;;27.40;;
24421;SDS011;12600;53.326;-6.298;2022-12-07T07:03:08;26.88;;;24.20;;
24421;SDS011;12600;53.326;-6.298;2022-12-07T07:05:57;24.15;;;21.58;;
24421;SDS011;12600;53.326;-6.298;2022-12-07T07:08:47;26.80;;;23.30;;
24421;SDS011;12600;53.326;-6.298;2022-12-07T07:11:36;26.35;;;23.40;;
24421;SDS011;12600;53.326;-6.298;2022-12-07T07:14:26;25.75;;;21.98;;
24421;SDS011;12600;53.326;-6.298;2022-12-07T07:17:16;24.38;;;21.25;;
24421;SDS011;12600;53.326;-6.298;2022-12-07T07:20:06;27.13;;;20.58;;
24421;SDS011;12600;53.326;-6.298;2022-12-07T07:22:56;23.20;;;20.65;;
24421;SDS011;12600;53.326;-6.298;2022-12-07T07:25:45;29.50;;;26.10;;
24421;SDS011;12600;53.326;-6.298;2022-12-07T07:28:35;31.75;;;27.92;;
24421;SDS011;12600;53.326;-6.298;2022-12-07T07:31:25;31.50;;;26.77;;
24421;SDS011;12600;53.326;-6.298;2022-12-07T07:34:16;29.83;;;24.52;;
24421;SDS011;12600;53.326;-6.298;2022-12-07T07:37:05;31.83;;;28.23;;
24421;SDS011;12600;53.326;-6.298;2022-12-07T07:39:55;33.15;;;29.73;;
24421;SDS011;12600;53.326;-6.298;2022-12-07T07:42:46;31.75;;;28.58;;
24421;SDS011;12600;53.326;-6.298;2022-12-07T07:45:36;34.67;;;30.55;;
24421;SDS011;12600;53.326;-6.298;2022-12-07T07:48:26;39.53;;;35.45;;
24421;SDS011;12600;53.326;-6.298;2022-12-07T07:51:16;36.97;;;33.50;;
24421;SDS011;12600;53.326;-6.298;2022-12-07T07:54:06;37.05;;;33.63;;
24421;SDS011;12600;53.326;-6.298;2022-12-07T07:56:55;36.33;;;33.08;;
24421;SDS011;12600;53.326;-6.298;2022-12-07T07:59:45;35.53;;;32.33;;
24421;SDS011;12600;53.326;-6.298;2022-12-07T08:02:34;37.72;;;33.97;;
24421;SDS011;12600;53.326;-6.298;2022-12-07T08:05:24;44.40;;;39.50;;
24421;SDS011;12600;53.326;-6.298;2022-12-07T08:08:14;36.35;;;32.63;;
24421;SDS011;12600;53.326;-6.298;2022-12-07T08:11:05;32.92;;;28.83;;
24421;SDS011;12600;53.326;-6.298;2022-12-07T08:13:55;31.08;;;28.08;;
24421;SDS011;12600;53.326;-6.298;2022-12-07T08:16:44;35.40;;;31.70;;
24421;SDS011;12600;53.326;-6.298;2022-12-07T08:19:33;61.17;;;56.72;;
24421;SDS011;12600;53.326;-6.298;2022-12-07T08:22:23;30.77;;;28.17;;
24421;SDS011;12600;53.326;-6.298;2022-12-07T08:25:14;31.58;;;28.40;;
24421;SDS011;12600;53.326;-6.298;2022-12-07T08:28:03;31.25;;;28.75;;
24421;SDS011;12600;53.326;-6.298;2022-12-07T08:30:58;28.65;;;25.63;;
24421;SDS011;12600;53.326;-6.298;2022-12-07T08:33:48;30.85;;;27.50;;
24421;SDS011;12600;53.326;-6.298;2022-12-07T08:36:38;41.50;;;38.15;;
24421;SDS011;12600;53.326;-6.298;2022-12-07T08:39:28;32.97;;;30.05;;
24421;SDS011;12600;53.326;-6.298;2022-12-07T08:42:19;34.85;;;31.50;;
24421;SDS011;12600;53.326;-6.298;2022-12-07T08:45:14;29.27;;;25.08;;
24421;SDS011;12600;53.326;-6.298;2022-12-07T08:48:12;36.22;;;33.25;;
24421;SDS011;12600;53.326;-6.298;2022-12-07T08:51:04;33.65;;;29.10;;
24421;SDS011;12600;53.326;-6.298;2022-12-07T08:53:54;42.85;;;38.38;;
24421;SDS011;12600;53.326;-6.298;2022-12-07T08:56:46;38.08;;;32.53;;
24421;SDS011;12600;53.326;-6.298;2022-12-07T08:59:46;27.45;;;24.05;;
24421;SDS011;12600;53.326;-6.298;2022-12-07T09:02:36;27.48;;;23.58;;
24421;SDS011;12600;53.326;-6.298;2022-12-07T09:05:25;27.80;;;25.38;;
24421;SDS011;12600;53.326;-6.298;2022-12-07T09:08:15;33.45;;;30.63;;
24421;SDS011;12600;53.326;-6.298;2022-12-07T09:11:05;29.75;;;24.88;;
24421;SDS011;12600;53.326;-6.298;2022-12-07T09:13:54;27.52;;;22.90;;
24421;SDS011;12600;53.326;-6.298;2022-12-07T09:16:45;28.42;;;25.42;;
24421;SDS011;12600;53.326;-6.298;2022-12-07T09:19:35;26.00;;;23.10;;
24421;SDS011;12600;53.326;-6.298;2022-12-07T09:22:24;30.92;;;27.75;;
24421;SDS011;12600;53.326;-6.298;2022-12-07T09:25:17;31.23;;;24.88;;
24421;SDS011;12600;53.326;-6.298;2022-12-07T09:28:07;28.85;;;26.02;;
24421;SDS011;12600;53.326;-6.298;2022-12-07T09:30:56;29.77;;;26.95;;
24421;SDS011;12600;53.326;-6.298;2022-12-07T09:34:07;28.92;;;25.95;;
24421;SDS011;12600;53.326;-6.298;2022-12-07T09:36:56;32.08;;;25.02;;
24421;SDS011;12600;53.326;-6.298;2022-12-07T09:39:46;25.25;;;22.80;;
24421;SDS011;12600;53.326;-6.298;2022-12-07T09:42:48;28.05;;;25.05;;
24421;SDS011;12600;53.326;-6.298;2022-12-07T09:45:40;33.03;;;28.38;;
24421;SDS011;12600;53.326;-6.298;2022-12-07T09:48:36;43.50;;;29.42;;
24421;SDS011;12600;53.326;-6.298;2022-12-07T09:51:29;38.67;;;27.45;;
24421;SDS011;12600;53.326;-6.298;2022-12-07T09:54:19;33.50;;;29.92;;
24421;SDS011;12600;53.326;-6.298;2022-12-07T09:57:08;28.38;;;24.02;;
24421;SDS011;12600;53.326;-6.298;2022-12-07T10:00:01;25.80;;;23.15;;
24421;SDS011;12600;53.326;-6.298;2022-12-07T10:02:55;27.33;;;24.77;;
24421;SDS011;12600;53.326;-6.298;2022-12-07T10:05:47;25.73;;;23.48;;
24421;SDS011;12600;53.326;-6.298;2022-12-07T10:08:41;31.42;;;28.13;;
24421;SDS011;12600;53.326;-6.298;2022-12-07T10:11:30;26.63;;;23.70;;
24421;SDS011;12600;53.326;-6.298;2022-12-07T10:14:19;28.10;;;25.60;;
24421;SDS011;12600;53.326;-6.298;2022-12-07T10:17:34;26.58;;;24.23;;
24421;SDS011;12600;53.326;-6.298;2022-12-07T10:20:28;24.35;;;22.33;;
24421;SDS011;12600;53.326;-6.298;2022-12-07T10:23:17;24.15;;;21.67;;
24421;SDS011;12600;53.326;-6.298;2022-12-07T10:26:24;24.83;;;22.27;;
24421;SDS011;12600;53.326;-6.298;2022-12-07T10:29:21;32.28;;;29.50;;
24421;SDS011;12600;53.326;-6.298;2022-12-07T10:32:25;27.42;;;24.85;;
24421;SDS011;12600;53.326;-6.298;2022-12-07T10:35:23;26.75;;;24.38;;
24421;SDS011;12600;53.326;-6.298;2022-12-07T10:38:15;31.45;;;28.48;;
24421;SDS011;12600;53.326;-6.298;2022-12-07T10:41:06;32.83;;;29.33;;
24421;SDS011;12600;53.326;-6.298;2022-12-07T10:43:57;27.90;;;25.25;;
24421;SDS011;12600;53.326;-6.298;2022-12-07T10:53:44;30.35;;;27.55;;
24421;SDS011;12600;53.326;-6.298;2022-12-07T10:56:53;29.40;;;26.63;;
24421;SDS011;12600;53.326;-6.298;2022-12-07T11:00:08;28.85;;;26.25;;
24421;SDS011;12600;53.326;-6.298;2022-12-07T11:06:33;27.52;;;24.67;;
24421;SDS011;12600;53.326;-6.298;2022-12-07T11:09:44;25.17;;;22.80;;
24421;SDS011;12600;53.326;-6.298;2022-12-07T11:13:04;29.15;;;26.15;;
24421;SDS011;12600;53.326;-6.298;2022-12-07T11:16:21;30.10;;;27.35;;
24421;SDS011;12600;53.326;-6.298;2022-12-07T11:19:24;40.72;;;37.75;;
24421;SDS011;12600;53.326;-6.298;2022-12-07T11:22:41;26.85;;;24.27;;
24421;SDS011;12600;53.326;-6.298;2022-12-07T11:25:42;26.92;;;24.73;;
24421;SDS011;12600;53.326;-6.298;2022-12-07T11:28:43;25.17;;;23.17;;
24421;SDS011;12600;53.326;-6.298;2022-12-07T11:32:08;23.45;;;20.98;;
24421;SDS011;12600;53.326;-6.298;2022-12-07T11:35:08;25.58;;;19.60;;
24421;SDS011;12600;53.326;-6.298;2022-12-07T11:38:11;20.38;;;16.98;;
24421;SDS011;12600;53.326;-6.298;2022-12-07T11:41:10;17.48;;;15.65;;
24421;SDS011;12600;53.326;-6.298;2022-12-07T11:44:02;18.73;;;16.30;;
24421;SDS011;12600;53.326;-6.298;2022-12-07T11:46:56;23.98;;;21.65;;
24421;SDS011;12600;53.326;-6.298;2022-12-07T11:49:56;23.67;;;21.33;;
24421;SDS011;12600;53.326;-6.298;2022-12-07T11:52:59;33.67;;;31.15;;
24421;SDS011;12600;53.326;-6.298;2022-12-07T11:55:57;44.30;;;41.05;;
24421;SDS011;12600;53.326;-6.298;2022-12-07T11:58:53;34.75;;;32.55;;
24421;SDS011;12600;53.326;-6.298;2022-12-07T12:01:48;30.63;;;28.02;;
24421;SDS011;12600;53.326;-6.298;2022-12-07T12:04:49;23.48;;;20.60;;
24421;SDS011;12600;53.326;-6.298;2022-12-07T12:07:48;25.50;;;21.92;;
24421;SDS011;12600;53.326;-6.298;2022-12-07T12:11:11;29.77;;;27.70;;
24421;SDS011;12600;53.326;-6.298;2022-12-07T12:14:19;28.50;;;25.85;;
24421;SDS011;12600;53.326;-6.298;2022-12-07T12:20:54;30.77;;;28.13;;
24421;SDS011;12600;53.326;-6.298;2022-12-07T12:23:50;29.00;;;26.65;;
24421;SDS011;12600;53.326;-6.298;2022-12-07T12:26:49;29.85;;;27.27;;
24421;SDS011;12600;53.326;-6.298;2022-12-07T12:29:44;26.63;;;24.35;;
24421;SDS011;12600;53.326;-6.298;2022-12-07T12:32:40;30.80;;;28.55;;
24421;SDS011;12600;53.326;-6.298;2022-12-07T12:35:32;30.77;;;28.38;;
24421;SDS011;12600;53.326;-6.298;2022-12-07T12:38:27;26.95;;;24.52;;
24421;SDS011;12600;53.326;-6.298;2022-12-07T12:45:03;25.73;;;23.42;;
24421;SDS011;12600;53.326;-6.298;2022-12-07T12:51:35;24.83;;;22.65;;
24421;SDS011;12600;53.326;-6.298;2022-12-07T12:54:27;29.65;;;27.20;;
24421;SDS011;12600;53.326;-6.298;2022-12-07T12:57:20;28.42;;;25.60;;
24421;SDS011;12600;53.326;-6.298;2022-12-07T13:00:15;22.02;;;19.67;;
24421;SDS011;12600;53.326;-6.298;2022-12-07T13:03:16;28.92;;;26.05;;
24421;SDS011;12600;53.326;-6.298;2022-12-07T13:06:19;24.10;;;21.77;;
24421;SDS011;12600;53.326;-6.298;2022-12-07T13:09:23;30.63;;;28.05;;
24421;SDS011;12600;53.326;-6.298;2022-12-07T13:12:18;26.30;;;24.05;;
24421;SDS011;12600;53.326;-6.298;2022-12-07T13:18:34;30.77;;;28.05;;
24421;SDS011;12600;53.326;-6.298;2022-12-07T13:21:41;25.95;;;23.55;;
24421;SDS011;12600;53.326;-6.298;2022-12-07T13:24:33;26.15;;;23.63;;
24421;SDS011;12600;53.326;-6.298;2022-12-07T13:27:23;28.25;;;25.85;;
24421;SDS011;12600;53.326;-6.298;2022-12-07T13:30:15;28.02;;;25.75;;
24421;SDS011;12600;53.326;-6.298;2022-12-07T13:33:08;28.52;;;26.05;;
24421;SDS011;12600;53.326;-6.298;2022-12-07T13:35:58;28.95;;;26.40;;
24421;SDS011;12600;53.326;-6.298;2022-12-07T13:38:49;30.77;;;27.75;;
24421;SDS011;12600;53.326;-6.298;2022-12-07T13:41:48;28.77;;;26.52;;
24421;SDS011;12600;53.326;-6.298;2022-12-07T13:44:40;28.38;;;23.98;;
24421;SDS011;12600;53.326;-6.298;2022-12-07T13:47:31;24.80;;;22.52;;
24421;SDS011;12600;53.326;-6.298;2022-12-07T13:50:27;22.85;;;21.00;;
24421;SDS011;12600;53.326;-6.298;2022-12-07T13:53:18;25.93;;;24.23;;
24421;SDS011;12600;53.326;-6.298;2022-12-07T13:56:12;21.58;;;20.17;;
24421;SDS011;12600;53.326;-6.298;2022-12-07T13:59:04;21.73;;;20.25;;
24421;SDS011;12600;53.326;-6.298;2022-12-07T14:01:59;21.52;;;20.13;;
24421;SDS011;12600;53.326;-6.298;2022-12-07T14:04:49;21.75;;;19.98;;
24421;SDS011;12600;53.326;-6.298;2022-12-07T14:07:48;25.48;;;23.73;;
24421;SDS011;12600;53.326;-6.298;2022-12-07T14:10:53;23.45;;;22.10;;
24421;SDS011;12600;53.326;-6.298;2022-12-07T14:13:47;21.88;;;20.35;;
24421;SDS011;12600;53.326;-6.298;2022-12-07T14:16:55;24.23;;;22.45;;
24421;SDS011;12600;53.326;-6.298;2022-12-07T14:19:48;28.83;;;26.90;;
24421;SDS011;12600;53.326;-6.298;2022-12-07T14:22:42;27.65;;;25.67;;
24421;SDS011;12600;53.326;-6.298;2022-12-07T14:25:32;23.90;;;22.25;;
24421;SDS011;12600;53.326;-6.298;2022-12-07T14:28:26;21.67;;;20.48;;
24421;SDS011;12600;53.326;-6.298;2022-12-07T14:31:18;29.10;;;27.30;;
24421;SDS011;12600;53.326;-6.298;2022-12-07T14:34:19;24.33;;;22.67;;
24421;SDS011;12600;53.326;-6.298;2022-12-07T14:37:09;27.48;;;25.63;;
24421;SDS011;12600;53.326;-6.298;2022-12-07T14:39:59;22.88;;;21.35;;
24421;SDS011;12600;53.326;-6.298;2022-12-07T14:42:50;24.30;;;22.45;;
24421;SDS011;12600;53.326;-6.298;2022-12-07T14:45:43;26.95;;;25.50;;
24421;SDS011;12600;53.326;-6.298;2022-12-07T14:48:32;23.15;;;20.90;;
24421;SDS011;12600;53.326;-6.298;2022-12-07T14:51:43;20.75;;;19.02;;
24421;SDS011;12600;53.326;-6.298;2022-12-07T14:54:55;21.35;;;19.17;;
24421;SDS011;12600;53.326;-6.298;2022-12-07T14:57:44;20.42;;;18.52;;
24421;SDS011;12600;53.326;-6.298;2022-12-07T15:00:34;20.02;;;18.30;;
24421;SDS011;12600;53.326;-6.298;2022-12-07T15:03:23;20.00;;;18.48;;
24421;SDS011;12600;53.326;-6.298;2022-12-07T15:06:13;38.03;;;35.30;;
24421;SDS011;12600;53.326;-6.298;2022-12-07T15:09:06;33.03;;;30.73;;
24421;SDS011;12600;53.326;-6.298;2022-12-07T15:11:57;21.43;;;19.43;;
24421;SDS011;12600;53.326;-6.298;2022-12-07T15:14:46;20.90;;;18.95;;
24421;SDS011;12600;53.326;-6.298;2022-12-07T15:17:36;20.48;;;18.48;;
24421;SDS011;12600;53.326;-6.298;2022-12-07T15:20:25;20.70;;;18.60;;
24421;SDS011;12600;53.326;-6.298;2022-12-07T15:23:14;20.90;;;18.83;;
24421;SDS011;12600;53.326;-6.298;2022-12-07T15:26:05;23.30;;;21.70;;
24421;SDS011;12600;53.326;-6.298;2022-12-07T15:28:55;23.05;;;20.63;;
24421;SDS011;12600;53.326;-6.298;2022-12-07T15:31:44;22.75;;;17.30;;
24421;SDS011;12600;53.326;-6.298;2022-12-07T15:34:42;21.50;;;18.92;;
24421;SDS011;12600;53.326;-6.298;2022-12-07T15:37:31;23.08;;;18.10;;
24421;SDS011;12600;53.326;-6.298;2022-12-07T15:40:20;31.90;;;29.60;;
24421;SDS011;12600;53.326;-6.298;2022-12-07T15:43:11;30.50;;;23.13;;
24421;SDS011;12600;53.326;-6.298;2022-12-07T15:46:14;21.77;;;20.02;;
24421;SDS011;12600;53.326;-6.298;2022-12-07T15:49:05;23.00;;;20.73;;
24421;SDS011;12600;53.326;-6.298;2022-12-07T15:51:58;19.20;;;17.25;;
24421;SDS011;12600;53.326;-6.298;2022-12-07T15:54:48;20.08;;;18.00;;
24421;SDS011;12600;53.326;-6.298;2022-12-07T15:57:38;18.80;;;16.85;;
24421;SDS011;12600;53.326;-6.298;2022-12-07T16:00:29;23.17;;;21.00;;
24421;SDS011;12600;53.326;-6.298;2022-12-07T16:03:18;19.50;;;17.77;;
24421;SDS011;12600;53.326;-6.298;2022-12-07T16:06:07;19.98;;;17.00;;
24421;SDS011;12600;53.326;-6.298;2022-12-07T16:08:57;20.00;;;17.90;;
24421;SDS011;12600;53.326;-6.298;2022-12-07T16:11:47;20.98;;;18.80;;
24421;SDS011;12600;53.326;-6.298;2022-12-07T16:14:37;23.05;;;20.63;;
24421;SDS011;12600;53.326;-6.298;2022-12-07T16:17:29;30.95;;;25.40;;
24421;SDS011;12600;53.326;-6.298;2022-12-07T16:20:18;22.38;;;20.05;;
24421;SDS011;12600;53.326;-6.298;2022-12-07T16:23:08;27.83;;;23.35;;
24421;SDS011;12600;53.326;-6.298;2022-12-07T16:26:03;24.42;;;21.90;;
24421;SDS011;12600;53.326;-6.298;2022-12-07T16:28:54;30.45;;;20.73;;
24421;SDS011;12600;53.326;-6.298;2022-12-07T16:31:44;26.15;;;21.75;;
24421;SDS011;12600;53.326;-6.298;2022-12-07T16:34:35;26.90;;;23.65;;
24421;SDS011;12600;53.326;-6.298;2022-12-07T16:37:24;32.15;;;24.58;;
24421;SDS011;12600;53.326;-6.298;2022-12-07T16:40:13;29.75;;;25.00;;
24421;SDS011;12600;53.326;-6.298;2022-12-07T16:43:03;31.30;;;26.13;;
24421;SDS011;12600;53.326;-6.298;2022-12-07T16:45:53;30.85;;;26.98;;
24421;SDS011;12600;53.326;-6.298;2022-12-07T16:48:42;26.00;;;23.30;;
24421;SDS011;12600;53.326;-6.298;2022-12-07T16:51:33;28.30;;;23.75;;
24421;SDS011;12600;53.326;-6.298;2022-12-07T16:54:24;25.92;;;23.15;;
24421;SDS011;12600;53.326;-6.298;2022-12-07T16:57:17;26.02;;;21.10;;
24421;SDS011;12600;53.326;-6.298;2022-12-07T17:00:10;32.87;;;25.67;;
24421;SDS011;12600;53.326;-6.298;2022-12-07T17:03:01;31.83;;;24.92;;
24421;SDS011;12600;53.326;-6.298;2022-12-07T17:05:51;29.77;;;23.90;;
24421;SDS011;12600;53.326;-6.298;2022-12-07T17:08:42;29.40;;;25.27;;
24421;SDS011;12600;53.326;-6.298;2022-12-07T17:11:32;39.10;;;28.70;;
24421;SDS011;12600;53.326;-6.298;2022-12-07T17:14:21;42.85;;;31.33;;
24421;SDS011;12600;53.326;-6.298;2022-12-07T17:17:28;43.30;;;32.30;;